Terminal Aerodrome Forecast
Issued by NWS

Home | Current Version | Previous Version | Graphics & Text | Print | Product List | Glossary On
Versions: 1 2 3 4 5 6 7 8 9 10 11 12 13 14 15 16 17 18
154
FTUS43 KIWX 251207 AAA
TAFSBN
TAF AMD
KSBN 251207Z 2512/2612 15005KT 5SM SHRA BR VCTS SCT040CB OVC060
     FM251500 12008KT 2SM SHRA BR OVC015
     FM260600 11009KT 1 1/2SM SHRA BR OVC008=

USA.gov is the U.S. government's official web portal to all federal, state and local government web resources and services.